Huvudsida
METAR-TAF:

METAR-TAF

Flygplatser :

Fairford Royal Air Force Base

Fairford, England

latitud: 51-41N, longitud: 001-47W, höjd: 87 m

Aktuellt väderrapport

Denna rapport gjordes för 44 minuter sedan, klockan 21:56 UTC
Vind 7 kt från ost/nordost
Temperatur 17°C
Fuktighet 63%
Tryck 1035 hPa
Sikt 10 km eller mer
Klar himmel

METAR: EGVA 272156Z AUTO 07007KT 9999 CLR 17/10 A3056 RMK AO2 SLP350 T01680104 $

Tid: 23:40 (22:40 UTC)


TAF: saknas

Aktuella väderrapporter och prognoser från 4000 flygplatser (METAR- och TAF-rapporter).

De tillgängliga stationerna syns som gula och röda prickar på kartan.

För musen över prickarna för att se namnen på stationerna.

Klicka sedan för att få väderrapporter och prognoser.

För att ändra kartan: Klicka på de gröna knapparna med ett svart kors på för att zooma in; den gröna knappen med ett streck på för att zooma ut; eller på de gröna pilarna för angränsande kartor.


METAR-TAF: